createdAt,value
2018-04-13T00:00:26.686Z,59.00
2018-04-13T00:01:30.939Z,53.50
2018-04-13T00:02:35.152Z,57.50
2018-04-13T00:03:39.279Z,50.00
2018-04-13T00:04:44.442Z,52.00
2018-04-13T00:05:48.705Z,52.00
2018-04-13T00:06:52.827Z,31.00
2018-04-13T00:07:57.059Z,37.50
2018-04-13T00:09:01.175Z,42.50
2018-04-13T00:10:05.583Z,51.00
2018-04-13T00:11:10.034Z,62.00
2018-04-13T00:12:14.949Z,25.00
2018-04-13T00:13:19.079Z,36.50
2018-04-13T00:14:23.180Z,61.00
2018-04-13T00:15:28.058Z,37.50
2018-04-13T00:16:33.134Z,44.00
2018-04-13T00:17:37.258Z,80.00
2018-04-13T00:18:41.731Z,17.00
2018-04-13T00:19:45.856Z,22.00
2018-04-13T00:20:50.085Z,25.50
2018-04-13T00:21:54.251Z,33.00
2018-04-13T00:22:58.707Z,21.50
2018-04-13T00:24:03.342Z,27.50
2018-04-13T00:25:07.961Z,56.00
2018-04-13T00:26:12.118Z,44.50
2018-04-13T00:27:16.965Z,58.00
2018-04-13T00:28:21.077Z,43.00
2018-04-13T00:29:25.489Z,63.50
2018-04-13T00:30:29.936Z,46.00
2018-04-13T00:31:34.053Z,78.00
2018-04-13T00:32:38.373Z,41.00
2018-04-13T00:33:42.555Z,54.00
2018-04-13T00:34:46.659Z,65.00
2018-04-13T00:35:51.086Z,59.00
2018-04-13T00:36:55.191Z,44.50
2018-04-13T00:37:59.406Z,21.00
2018-04-13T00:39:03.738Z,50.50
2018-04-13T00:40:08.145Z,58.50
2018-04-13T00:41:12.347Z,53.00
2018-04-13T00:42:17.043Z,39.50
2018-04-13T00:43:21.240Z,30.50
2018-04-13T00:44:25.414Z,41.50
2018-04-13T00:45:29.721Z,41.50
2018-04-13T00:46:33.859Z,39.50
2018-04-13T00:47:38.593Z,40.50
2018-04-13T00:48:43.579Z,42.00
2018-04-13T00:49:47.739Z,46.00
2018-04-13T00:50:51.903Z,52.50
2018-04-13T00:51:56.007Z,62.00
2018-04-13T00:53:08.829Z,55.50
2018-04-13T00:54:13.709Z,51.00
2018-04-13T00:55:18.239Z,53.00
2018-04-13T00:56:22.391Z,47.00
2018-04-13T00:57:26.497Z,46.50
2018-04-13T00:58:30.714Z,40.00
2018-04-13T00:59:34.929Z,22.50
2018-04-13T01:00:39.677Z,46.00
2018-04-13T01:01:44.194Z,38.00
2018-04-13T01:02:48.436Z,47.50
2018-04-13T01:03:52.971Z,48.50
2018-04-13T01:04:57.399Z,52.00
2018-04-13T01:06:01.554Z,37.00
2018-04-13T01:07:06.035Z,42.00
2018-04-13T01:08:10.819Z,33.00
2018-04-13T01:09:15.859Z,26.50
2018-04-13T01:10:20.201Z,21.00
2018-04-13T01:11:24.700Z,29.50
2018-04-13T01:12:29.413Z,45.50
2018-04-13T01:13:33.839Z,56.00
2018-04-13T01:14:38.693Z,52.50
2018-04-13T01:15:43.075Z,54.00
2018-04-13T01:16:47.172Z,53.00
2018-04-13T01:17:51.334Z,43.50
2018-04-13T01:18:55.423Z,46.00
2018-04-13T01:19:59.582Z,49.50
2018-04-13T01:21:03.702Z,51.00
2018-04-13T01:22:07.804Z,46.50
2018-04-13T01:23:11.974Z,49.50
2018-04-13T01:24:17.150Z,46.50
2018-04-13T01:25:21.597Z,53.75
2018-04-13T01:26:26.015Z,39.50
2018-04-13T01:27:30.272Z,53.50
2018-04-13T01:28:34.404Z,50.00
2018-04-13T01:29:38.600Z,38.50
2018-04-13T01:30:43.143Z,47.50
2018-04-13T01:31:47.285Z,46.00
2018-04-13T01:32:52.035Z,42.00
2018-04-13T01:33:56.185Z,54.00
2018-04-13T01:35:00.879Z,56.50
2018-04-13T01:36:05.037Z,49.50
2018-04-13T01:37:09.134Z,58.25
2018-04-13T01:38:13.873Z,58.00
2018-04-13T01:39:18.948Z,47.75
2018-04-13T01:40:23.347Z,53.75
2018-04-13T01:41:27.945Z,50.00
2018-04-13T01:42:32.043Z,43.50
2018-04-13T01:43:36.607Z,46.75
2018-04-13T01:44:40.962Z,47.75
2018-04-13T01:45:45.355Z,39.25
2018-04-13T01:46:50.336Z,45.25
2018-04-13T01:47:54.923Z,54.00
2018-04-13T01:48:59.582Z,50.50
2018-04-13T01:50:04.097Z,51.00
2018-04-13T01:51:08.662Z,53.50
2018-04-13T01:52:13.194Z,50.00
2018-04-13T01:53:18.084Z,53.00
2018-04-13T01:54:22.368Z,46.25
2018-04-13T01:55:26.486Z,43.25
2018-04-13T01:56:30.612Z,46.00
2018-04-13T01:57:35.069Z,45.00
2018-04-13T01:58:39.228Z,44.25
2018-04-13T01:59:43.435Z,41.00
2018-04-13T02:00:48.265Z,56.50
2018-04-13T02:01:52.348Z,50.50
2018-04-13T02:02:56.551Z,53.00
2018-04-13T02:04:01.019Z,49.50
2018-04-13T02:05:05.266Z,58.00
2018-04-13T02:06:09.728Z,60.50
2018-04-13T02:07:14.141Z,47.50
2018-04-13T02:08:19.256Z,46.00
2018-04-13T02:09:23.469Z,52.00
2018-04-13T02:10:27.929Z,58.00
2018-04-13T02:11:32.357Z,49.00
2018-04-13T02:12:37.241Z,47.25
2018-04-13T02:13:41.453Z,54.00
2018-04-13T02:14:47.241Z,51.00
2018-04-13T02:15:51.625Z,58.00
2018-04-13T02:16:56.091Z,56.00
2018-04-13T02:18:00.381Z,54.00
2018-04-13T02:19:04.601Z,55.00
2018-04-13T02:20:08.718Z,50.75
2018-04-13T02:21:12.863Z,53.75
2018-04-13T02:22:17.857Z,51.75
2018-04-13T02:23:22.389Z,54.25
2018-04-13T02:24:26.566Z,51.25
2018-04-13T02:25:30.751Z,55.50
2018-04-13T02:26:34.899Z,63.75
2018-04-13T02:27:39.014Z,53.00
2018-04-13T02:28:43.234Z,57.00
2018-04-13T02:29:47.370Z,60.00
2018-04-13T02:30:51.851Z,59.00
2018-04-13T02:31:55.973Z,47.00
2018-04-13T02:33:00.498Z,59.00
2018-04-13T02:34:04.628Z,51.50
2018-04-13T02:35:09.094Z,56.50
2018-04-13T02:36:14.084Z,58.25
2018-04-13T02:37:19.139Z,54.50
2018-04-13T02:38:23.504Z,64.00
2018-04-13T02:39:27.737Z,69.50
2018-04-13T02:40:31.856Z,73.00
2018-04-13T02:41:36.090Z,58.50
2018-04-13T02:42:40.211Z,56.00
2018-04-13T02:43:44.354Z,57.00
2018-04-13T02:44:48.606Z,54.50
2018-04-13T02:45:53.055Z,64.00
2018-04-13T02:46:57.431Z,55.50
2018-04-13T02:48:01.742Z,60.00
2018-04-13T02:49:06.059Z,60.50
2018-04-13T02:50:10.152Z,56.00
2018-04-13T02:51:14.266Z,47.00
2018-04-13T02:52:18.641Z,57.50
2018-04-13T02:53:23.084Z,58.50
2018-04-13T02:54:27.216Z,59.50
2018-04-13T02:55:31.332Z,64.25
2018-04-13T02:56:35.866Z,69.00
2018-04-13T02:57:40.061Z,56.25
2018-04-13T02:58:45.221Z,59.00
2018-04-13T02:59:49.635Z,55.00
2018-04-13T03:00:53.971Z,55.75
2018-04-13T03:01:58.085Z,48.50
2018-04-13T03:03:02.321Z,60.75
2018-04-13T03:04:06.444Z,46.50
2018-04-13T03:05:10.551Z,61.50
2018-04-13T03:06:15.265Z,50.00
2018-04-13T03:07:19.489Z,62.00
2018-04-13T03:08:23.627Z,58.00
2018-04-13T03:09:27.737Z,54.00
2018-04-13T03:10:31.841Z,51.50
2018-04-13T03:11:36.114Z,60.00
2018-04-13T03:12:40.627Z,39.00
2018-04-13T03:13:45.000Z,46.00
2018-04-13T03:14:49.209Z,56.50
2018-04-13T03:15:53.617Z,64.50
2018-04-13T03:16:57.727Z,58.50
2018-04-13T03:18:01.926Z,41.00
2018-04-13T03:19:06.998Z,58.50
2018-04-13T03:20:11.116Z,57.00
2018-04-13T03:21:16.360Z,51.50
2018-04-13T03:22:20.560Z,47.50
2018-04-13T03:23:24.678Z,31.00
2018-04-13T03:24:28.794Z,52.00
2018-04-13T03:25:33.309Z,44.00
2018-04-13T03:26:37.422Z,57.50
2018-04-13T03:27:41.550Z,50.50
2018-04-13T03:28:45.684Z,61.50
2018-04-13T03:29:49.801Z,53.00
2018-04-13T03:30:54.451Z,56.50
2018-04-13T03:31:58.910Z,60.00
2018-04-13T03:33:03.036Z,57.00
2018-04-13T03:34:07.164Z,57.00
2018-04-13T03:35:11.289Z,51.50
2018-04-13T03:36:15.485Z,48.50
2018-04-13T03:37:20.401Z,53.50
2018-04-13T03:38:24.517Z,60.00
2018-04-13T03:39:28.625Z,42.50
2018-04-13T03:40:32.741Z,45.50
2018-04-13T03:41:37.045Z,53.50
2018-04-13T03:42:41.204Z,60.00
2018-04-13T03:43:45.309Z,54.50
2018-04-13T03:44:50.732Z,62.00
2018-04-13T03:45:55.095Z,60.50
2018-04-13T03:46:59.253Z,43.50
2018-04-13T03:48:03.390Z,59.00
2018-04-13T03:49:07.568Z,58.50
2018-04-13T03:50:11.678Z,58.50
2018-04-13T03:51:15.794Z,59.00
2018-04-13T03:52:19.923Z,60.00
2018-04-13T03:53:24.523Z,60.00
2018-04-13T03:54:29.159Z,61.00
2018-04-13T03:55:33.338Z,64.00
2018-04-13T03:56:37.864Z,60.00
2018-04-13T03:57:42.008Z,43.00
2018-04-13T03:58:46.610Z,58.50
2018-04-13T03:59:51.233Z,62.00
2018-04-13T04:00:55.837Z,67.50
2018-04-13T04:02:00.250Z,60.00
2018-04-13T04:03:04.645Z,60.00
2018-04-13T04:04:08.869Z,58.50
2018-04-13T04:05:12.995Z,64.00
2018-04-13T04:06:17.247Z,60.00
2018-04-13T04:07:21.383Z,59.50
2018-04-13T04:08:25.524Z,57.00
2018-04-13T04:09:29.939Z,65.00
2018-04-13T04:10:34.072Z,64.50
2018-04-13T04:11:38.514Z,64.50
2018-04-13T04:12:42.715Z,60.50
2018-04-13T04:13:46.925Z,58.50
2018-04-13T04:14:52.730Z,63.00
2018-04-13T04:15:57.344Z,70.00
2018-04-13T04:17:01.523Z,63.50
2018-04-13T04:18:05.676Z,64.00
2018-04-13T04:19:09.784Z,63.50
2018-04-13T04:20:25.036Z,62.50
2018-04-13T04:21:40.051Z,64.00
2018-04-13T04:25:00.764Z,62.00
2018-04-13T04:27:09.754Z,59.50
2018-04-13T04:28:13.888Z,61.00
2018-04-13T04:29:19.008Z,63.00
2018-04-13T04:30:23.630Z,69.50
2018-04-13T04:31:27.738Z,62.00
2018-04-13T04:32:32.185Z,66.00
2018-04-13T04:33:36.415Z,63.50
2018-04-13T04:34:40.569Z,66.00
2018-04-13T04:35:44.706Z,69.00
2018-04-13T04:36:48.856Z,66.00
2018-04-13T04:37:53.064Z,70.00
2018-04-13T04:38:58.132Z,64.00
2018-04-13T04:40:02.357Z,62.00
2018-04-13T04:41:06.511Z,60.00
2018-04-13T04:42:10.644Z,58.00
2018-04-13T04:43:14.795Z,52.50
2018-04-13T04:44:19.814Z,64.00
2018-04-13T04:45:24.438Z,70.00
2018-04-13T04:46:28.560Z,55.50
2018-04-13T04:47:32.648Z,54.50
2018-04-13T04:48:36.846Z,56.50
2018-04-13T04:49:40.989Z,58.00
2018-04-13T04:50:45.628Z,60.50
2018-04-13T04:51:49.777Z,63.00
2018-04-13T04:52:54.967Z,64.00
2018-04-13T04:53:59.133Z,59.00
2018-04-13T04:55:03.274Z,60.00
2018-04-13T04:56:07.432Z,60.50
2018-04-13T04:57:11.540Z,64.50
2018-04-13T04:58:15.832Z,63.75
2018-04-13T04:59:20.881Z,64.00
2018-04-13T05:00:25.274Z,91.75
2018-04-13T05:01:29.526Z,70.00
2018-04-13T05:02:34.007Z,64.50
2018-04-13T05:03:38.216Z,60.50
2018-04-13T05:04:42.340Z,62.00
2018-04-13T05:05:46.502Z,60.50
2018-04-13T05:06:50.645Z,64.00
2018-04-13T05:07:55.558Z,66.00
2018-04-13T05:09:00.042Z,61.00
2018-04-13T05:10:04.284Z,63.50
2018-04-13T05:11:08.416Z,62.50
2018-04-13T05:12:12.630Z,61.00
2018-04-13T05:13:17.396Z,69.50
2018-04-13T05:14:22.159Z,60.00
2018-04-13T05:15:26.698Z,64.00
2018-04-13T05:16:30.815Z,63.00
2018-04-13T05:17:34.933Z,63.50
2018-04-13T05:18:39.137Z,66.00
2018-04-13T05:19:43.304Z,63.00
2018-04-13T05:20:47.821Z,58.00
2018-04-13T05:21:51.939Z,66.00
2018-04-13T05:22:56.112Z,55.00
2018-04-13T05:24:01.292Z,66.00
2018-04-13T05:25:05.414Z,64.00
2018-04-13T05:26:09.525Z,65.50
2018-04-13T05:27:13.957Z,62.00
2018-04-13T05:28:18.234Z,58.00
2018-04-13T05:29:22.376Z,62.00
2018-04-13T05:30:26.709Z,74.50
2018-04-13T05:31:30.823Z,64.00
2018-04-13T05:32:35.559Z,64.50
2018-04-13T05:33:39.781Z,60.00
2018-04-13T05:34:44.351Z,70.00
2018-04-13T05:35:48.577Z,69.00
2018-04-13T05:36:52.729Z,61.00
2018-04-13T05:37:56.933Z,67.50
2018-04-13T05:39:02.264Z,66.00
2018-04-13T05:40:06.444Z,68.00
2018-04-13T05:41:10.590Z,66.00
2018-04-13T05:42:14.767Z,70.00
2018-04-13T05:43:19.127Z,72.00
2018-04-13T05:44:23.322Z,70.00
2018-04-13T05:45:27.719Z,65.00
2018-04-13T05:46:31.828Z,66.00
2018-04-13T05:47:35.957Z,64.50
2018-04-13T05:48:40.066Z,65.00
2018-04-13T05:49:44.264Z,65.00
2018-04-13T05:50:48.765Z,70.00
2018-04-13T05:51:53.016Z,63.00
2018-04-13T05:52:57.176Z,63.50
2018-04-13T05:54:02.258Z,63.50
2018-04-13T05:55:06.464Z,71.00
2018-04-13T05:56:10.608Z,65.00
2018-04-13T05:57:15.169Z,65.50
2018-04-13T05:58:19.272Z,65.00
2018-04-13T05:59:23.378Z,57.50
2018-04-13T06:00:27.828Z,63.50
2018-04-13T06:01:31.990Z,71.50
2018-04-13T06:02:36.188Z,64.00
2018-04-13T06:03:40.654Z,66.50
2018-04-13T06:04:45.096Z,66.50
2018-04-13T06:05:49.284Z,63.50
2018-04-13T06:06:53.534Z,66.00
2018-04-13T06:07:57.669Z,68.50
2018-04-13T06:09:03.282Z,64.00
2018-04-13T06:10:07.409Z,64.00
2018-04-13T06:11:11.576Z,68.00
2018-04-13T06:12:15.728Z,65.50
2018-04-13T06:13:20.765Z,59.25
2018-04-13T06:14:24.886Z,68.75
2018-04-13T06:15:29.255Z,64.25
2018-04-13T06:16:33.408Z,63.75
2018-04-13T06:17:37.638Z,62.00
2018-04-13T06:18:41.779Z,60.25
2018-04-13T06:19:45.902Z,63.50
2018-04-13T06:20:50.566Z,61.00
2018-04-13T06:21:54.693Z,64.00
2018-04-13T06:22:58.874Z,63.00
2018-04-13T06:24:03.860Z,61.00
2018-04-13T06:25:08.054Z,60.00
2018-04-13T06:26:12.256Z,57.50
2018-04-13T06:27:17.653Z,61.00
2018-04-13T06:28:21.770Z,63.50
2018-04-13T06:29:25.905Z,63.00
2018-04-13T06:30:30.384Z,59.50
2018-04-13T06:31:34.534Z,62.25
2018-04-13T06:32:38.652Z,62.75
2018-04-13T06:33:43.294Z,62.00
2018-04-13T06:34:47.468Z,61.50
2018-04-13T06:35:51.654Z,63.50
2018-04-13T06:36:55.974Z,52.00
2018-04-13T06:38:00.097Z,58.75
2018-04-13T06:39:04.478Z,63.00
2018-04-13T06:40:08.637Z,64.00
2018-04-13T06:41:12.841Z,63.00
2018-04-13T06:42:17.102Z,71.00
2018-04-13T06:43:22.064Z,63.50
2018-04-13T06:44:26.274Z,65.00
2018-04-13T06:45:30.920Z,68.50
2018-04-13T06:46:35.134Z,59.50
2018-04-13T06:47:39.317Z,66.50
2018-04-13T06:48:43.438Z,71.00
2018-04-13T06:49:47.627Z,64.00
2018-04-13T06:50:51.949Z,59.50
2018-04-13T06:51:56.443Z,66.00
2018-04-13T06:53:01.571Z,65.75
2018-04-13T06:54:05.789Z,66.50
2018-04-13T06:55:09.961Z,61.00
2018-04-13T06:56:14.116Z,60.50
2018-04-13T06:57:18.311Z,65.25
2018-04-13T06:58:23.357Z,63.00
2018-04-13T06:59:27.510Z,59.00
2018-04-13T07:00:31.953Z,68.50
2018-04-13T07:01:36.756Z,64.00
2018-04-13T07:02:41.038Z,63.00
2018-04-13T07:03:45.190Z,64.50
2018-04-13T07:04:49.674Z,64.00
2018-04-13T07:05:53.822Z,65.00
2018-04-13T07:06:58.134Z,62.50
2018-04-13T07:08:02.390Z,63.50
2018-04-13T07:09:07.148Z,64.00
2018-04-13T07:10:11.354Z,57.50
2018-04-13T07:11:15.788Z,65.50
2018-04-13T07:12:20.800Z,66.50
2018-04-13T07:13:25.170Z,62.50
2018-04-13T07:14:29.570Z,69.50
2018-04-13T07:15:34.142Z,65.00
2018-04-13T07:16:38.616Z,59.50
2018-04-13T07:17:42.728Z,64.50
2018-04-13T07:18:46.956Z,65.00
2018-04-13T07:19:51.338Z,64.50
2018-04-13T07:20:55.654Z,66.00
2018-04-13T07:22:00.040Z,64.00
2018-04-13T07:23:04.557Z,64.50
2018-04-13T07:24:08.718Z,61.75
2018-04-13T07:25:13.016Z,59.75
2018-04-13T07:26:17.286Z,59.00
2018-04-13T07:27:21.558Z,62.75
2018-04-13T07:28:25.668Z,58.00
2018-04-13T07:29:30.265Z,65.00
2018-04-13T07:30:34.554Z,69.25
2018-04-13T07:31:38.700Z,61.00
2018-04-13T07:32:42.872Z,62.00
2018-04-13T07:33:47.024Z,66.00
2018-04-13T07:34:51.110Z,61.00
2018-04-13T07:35:55.596Z,61.00
2018-04-13T07:37:00.167Z,62.50
2018-04-13T07:38:03.904Z,59.75
2018-04-13T07:39:08.126Z,65.75
2018-04-13T07:40:12.368Z,60.25
2018-04-13T07:41:16.561Z,67.00
2018-04-13T07:42:21.003Z,43.50
2018-04-13T07:43:25.659Z,56.00
2018-04-13T07:44:29.774Z,42.75
2018-04-13T07:45:34.356Z,53.50
2018-04-13T07:46:39.192Z,60.00
2018-04-13T07:47:43.332Z,57.75
2018-04-13T07:48:47.521Z,59.25
2018-04-13T07:49:51.709Z,56.25
2018-04-13T07:50:56.402Z,55.00
2018-04-13T07:52:00.181Z,60.00
2018-04-13T07:53:04.368Z,61.50
2018-04-13T07:54:08.853Z,63.00
2018-04-13T07:55:12.988Z,59.00
2018-04-13T07:56:17.441Z,55.75
2018-04-13T07:57:21.661Z,56.00
2018-04-13T07:58:27.369Z,59.25
2018-04-13T07:59:31.816Z,57.00
2018-04-13T08:00:35.921Z,48.00
2018-04-13T08:01:40.602Z,55.00
2018-04-13T08:02:44.329Z,57.00
2018-04-13T08:03:48.485Z,61.00
2018-04-13T08:04:52.610Z,60.00
2018-04-13T08:05:57.146Z,63.00
2018-04-13T08:07:01.346Z,56.50
2018-04-13T08:08:05.475Z,62.25
2018-04-13T08:09:09.661Z,56.00
2018-04-13T08:10:14.327Z,55.75
2018-04-13T08:11:18.037Z,54.50
2018-04-13T08:12:22.807Z,50.75
2018-04-13T08:13:27.381Z,55.00
2018-04-13T08:14:31.527Z,57.50
2018-04-13T08:15:35.999Z,61.50
2018-04-13T08:16:40.153Z,55.00
2018-04-13T08:17:44.370Z,57.00
2018-04-13T08:18:48.905Z,58.00
2018-04-13T08:19:53.061Z,58.00
2018-04-13T08:20:57.205Z,53.50
2018-04-13T08:22:01.308Z,57.00
2018-04-13T08:23:05.663Z,59.75
2018-04-13T08:24:09.847Z,57.00
2018-04-13T08:25:14.096Z,57.25
2018-04-13T08:26:18.352Z,53.00
2018-04-13T08:27:22.506Z,57.50
2018-04-13T08:28:26.806Z,60.50
2018-04-13T08:29:30.909Z,57.50
2018-04-13T08:30:35.652Z,62.50
2018-04-13T08:31:40.109Z,58.00
2018-04-13T08:32:45.085Z,62.50
2018-04-13T08:33:49.285Z,60.00
2018-04-13T08:34:53.456Z,57.00
2018-04-13T08:35:57.682Z,58.75
2018-04-13T08:37:01.863Z,57.00
2018-04-13T08:38:06.031Z,57.00
2018-04-13T08:39:10.271Z,60.75
2018-04-13T08:40:14.446Z,62.50
2018-04-13T08:41:18.599Z,55.50
2018-04-13T08:42:22.999Z,56.00
2018-04-13T08:43:27.486Z,58.00
2018-04-13T08:44:32.451Z,57.50
2018-04-13T08:45:36.999Z,61.00
2018-04-13T08:46:41.107Z,58.00
2018-04-13T08:47:45.251Z,57.25
2018-04-13T08:48:49.479Z,60.00
2018-04-13T08:49:53.723Z,61.00
2018-04-13T08:50:57.956Z,60.25
2018-04-13T08:52:02.083Z,62.00
2018-04-13T08:53:06.251Z,60.00
2018-04-13T08:54:10.455Z,59.25
2018-04-13T08:55:14.685Z,58.75
2018-04-13T08:56:19.161Z,59.50
2018-04-13T08:57:23.763Z,67.00
2018-04-13T08:58:27.896Z,61.75
2018-04-13T08:59:32.117Z,63.50
2018-04-13T09:00:36.567Z,61.00
2018-04-13T09:01:40.653Z,63.75
2018-04-13T09:02:44.740Z,60.75
2018-04-13T09:03:48.868Z,60.50
2018-04-13T09:04:53.216Z,62.00
2018-04-13T09:05:57.443Z,65.00
2018-04-13T09:07:01.565Z,55.25
2018-04-13T09:08:06.549Z,64.00
2018-04-13T09:09:10.782Z,61.00
2018-04-13T09:10:14.924Z,61.50
2018-04-13T09:11:19.609Z,58.50
2018-04-13T09:12:23.806Z,58.25
2018-04-13T09:13:28.732Z,60.50
2018-04-13T09:14:40.684Z,58.00
2018-04-13T09:15:45.173Z,63.00
2018-04-13T09:16:49.413Z,63.75
2018-04-13T09:17:53.511Z,66.50
2018-04-13T09:18:58.066Z,62.00
2018-04-13T09:20:02.191Z,55.00
2018-04-13T09:21:06.397Z,64.75
2018-04-13T09:22:10.619Z,64.50
2018-04-13T09:23:14.829Z,58.50
2018-04-13T09:24:18.979Z,62.75
2018-04-13T09:25:23.473Z,57.25
2018-04-13T09:26:27.716Z,61.50
2018-04-13T09:27:31.953Z,64.75
2018-04-13T09:28:36.093Z,67.50
2018-04-13T09:29:40.777Z,70.75
2018-04-13T09:30:45.206Z,61.50
2018-04-13T09:31:49.704Z,64.00
2018-04-13T09:32:53.826Z,65.75
2018-04-13T09:33:58.355Z,65.25
2018-04-13T09:35:02.788Z,58.00
2018-04-13T09:36:07.330Z,61.00
2018-04-13T09:37:11.634Z,65.25
2018-04-13T09:38:15.766Z,62.75
2018-04-13T09:39:19.895Z,64.25
2018-04-13T09:40:24.057Z,66.25
2018-04-13T09:41:28.290Z,62.75
2018-04-13T09:42:32.433Z,68.00
2018-04-13T09:43:36.613Z,65.00
2018-04-13T09:44:42.075Z,64.50
2018-04-13T09:45:46.545Z,65.00
2018-04-13T09:46:50.673Z,65.00
2018-04-13T09:47:54.819Z,63.00
2018-04-13T09:48:59.063Z,65.25
2018-04-13T09:50:03.648Z,59.50
2018-04-13T09:51:07.776Z,63.00
2018-04-13T09:52:11.887Z,63.00
2018-04-13T09:53:16.039Z,63.50
2018-04-13T09:54:20.234Z,58.75
2018-04-13T09:55:24.358Z,62.50
2018-04-13T09:56:28.585Z,60.75
2018-04-13T09:57:32.817Z,62.00
2018-04-13T09:58:37.011Z,58.50
2018-04-13T09:59:42.124Z,57.75
2018-04-13T10:00:50.447Z,62.50
2018-04-13T10:01:54.727Z,57.50
2018-04-13T10:03:02.977Z,62.50
2018-04-13T10:04:11.114Z,65.00
2018-04-13T10:05:17.699Z,64.25
2018-04-13T10:06:22.301Z,57.50
2018-04-13T10:07:26.467Z,66.00
2018-04-13T10:08:30.736Z,61.50
2018-04-13T10:09:34.867Z,62.50
2018-04-13T10:10:38.993Z,63.00
2018-04-13T10:11:43.204Z,67.00
2018-04-13T10:12:47.696Z,63.50
2018-04-13T10:13:51.865Z,62.25
2018-04-13T10:14:56.149Z,58.75
2018-04-13T10:16:01.359Z,64.75
2018-04-13T10:17:05.602Z,58.00
2018-04-13T10:18:09.833Z,61.00
2018-04-13T10:19:14.355Z,59.00
2018-04-13T10:20:18.533Z,62.25
2018-04-13T10:21:22.725Z,66.50
2018-04-13T10:22:26.945Z,61.25
2018-04-13T10:23:31.077Z,67.75
2018-04-13T10:24:35.389Z,56.50
2018-04-13T10:25:39.875Z,68.00
2018-04-13T10:26:44.137Z,70.00
2018-04-13T10:27:48.323Z,68.50
2018-04-13T10:28:52.551Z,66.00
2018-04-13T10:29:56.730Z,63.00
2018-04-13T10:31:01.310Z,68.50
2018-04-13T10:32:05.446Z,59.25
2018-04-13T10:33:09.623Z,69.00
2018-04-13T10:34:13.754Z,65.00
2018-04-13T10:35:17.979Z,63.00
2018-04-13T10:36:22.217Z,61.50
2018-04-13T10:37:26.485Z,59.00
2018-04-13T10:38:30.615Z,68.50
2018-04-13T10:39:34.909Z,68.50
2018-04-13T10:40:39.081Z,67.50
2018-04-13T10:41:43.191Z,66.25
2018-04-13T10:42:47.869Z,69.00
2018-04-13T10:43:52.002Z,68.00
2018-04-13T10:44:57.025Z,64.75
2018-04-13T10:46:01.159Z,65.25
2018-04-13T10:47:05.458Z,68.00
2018-04-13T10:48:09.656Z,64.50
2018-04-13T10:49:13.799Z,67.00
2018-04-13T10:50:17.903Z,63.00
2018-04-13T10:51:22.014Z,59.00
2018-04-13T10:52:26.488Z,64.00
2018-04-13T10:53:30.605Z,70.00
2018-04-13T10:54:34.829Z,66.50
2018-04-13T10:55:39.057Z,61.75
2018-04-13T10:56:43.224Z,66.25
2018-04-13T10:57:47.679Z,66.50
2018-04-13T10:58:51.985Z,66.50
2018-04-13T10:59:56.179Z,65.50
2018-04-13T11:01:00.616Z,70.25
2018-04-13T11:02:04.998Z,62.75
2018-04-13T11:03:09.298Z,66.00
2018-04-13T11:04:13.591Z,71.75
2018-04-13T11:05:18.070Z,61.00
2018-04-13T11:06:22.351Z,68.00
2018-04-13T11:07:26.500Z,68.50
2018-04-13T11:08:30.606Z,61.25
2018-04-13T11:09:34.746Z,70.50
2018-04-13T11:10:39.178Z,65.00
2018-04-13T11:11:43.344Z,66.50
2018-04-13T11:12:47.472Z,62.00
2018-04-13T11:13:52.556Z,58.50
2018-04-13T11:14:56.706Z,66.50
2018-04-13T11:16:02.723Z,63.00
2018-04-13T11:17:07.868Z,59.00
2018-04-13T11:18:12.140Z,64.75
2018-04-13T11:19:16.261Z,63.50
2018-04-13T11:20:20.496Z,64.75
2018-04-13T11:21:24.607Z,64.50
2018-04-13T11:22:28.775Z,72.50
2018-04-13T11:23:32.995Z,67.25
2018-04-13T11:24:37.292Z,67.25
2018-04-13T11:25:41.571Z,67.75
2018-04-13T11:26:45.722Z,68.75
2018-04-13T11:27:49.844Z,61.25
2018-04-13T11:28:54.041Z,64.00
2018-04-13T11:29:59.449Z,63.50
2018-04-13T11:31:03.763Z,64.00
2018-04-13T11:32:07.979Z,67.00
2018-04-13T11:33:12.182Z,66.00
2018-04-13T11:34:16.334Z,62.75
2018-04-13T11:35:20.564Z,66.25
2018-04-13T11:36:24.809Z,66.25
2018-04-13T11:37:29.320Z,64.00
2018-04-13T11:38:33.567Z,62.25
2018-04-13T11:39:37.737Z,65.50
2018-04-13T11:40:41.972Z,68.00
2018-04-13T11:41:46.149Z,67.25
2018-04-13T11:42:50.394Z,66.50
2018-04-13T11:43:55.037Z,70.00
2018-04-13T11:44:59.169Z,64.50
2018-04-13T11:46:03.427Z,67.00
2018-04-13T11:47:08.245Z,66.00
2018-04-13T11:48:13.039Z,71.00
2018-04-13T11:49:17.375Z,63.75
2018-04-13T11:50:21.604Z,72.50
2018-04-13T11:51:25.815Z,67.25
2018-04-13T11:52:30.248Z,63.50
2018-04-13T11:53:34.399Z,68.00
2018-04-13T11:54:38.643Z,61.50
2018-04-13T11:55:42.949Z,64.00
2018-04-13T11:56:47.105Z,67.75
2018-04-13T11:57:51.933Z,68.50
2018-04-13T11:58:56.449Z,66.50
2018-04-13T12:00:00.555Z,65.25
2018-04-13T12:01:04.917Z,72.50
2018-04-13T12:02:09.248Z,65.25
2018-04-13T12:03:13.405Z,61.00
2018-04-13T12:04:17.569Z,67.50
2018-04-13T12:05:22.059Z,67.25
2018-04-13T12:06:26.971Z,67.00
2018-04-13T12:07:31.117Z,66.75
2018-04-13T12:08:35.372Z,66.25
2018-04-13T12:09:39.734Z,66.50
2018-04-13T12:10:43.997Z,69.50
2018-04-13T12:11:48.189Z,61.50
2018-04-13T12:12:53.157Z,64.50
2018-04-13T12:13:57.402Z,65.50
2018-04-13T12:15:04.269Z,67.50
2018-04-13T12:16:08.606Z,69.25
2018-04-13T12:17:13.091Z,69.50
2018-04-13T12:18:17.628Z,61.25
2018-04-13T12:19:21.788Z,64.75
2018-04-13T12:20:26.046Z,67.50
2018-04-13T12:21:30.288Z,66.75
2018-04-13T12:22:34.454Z,65.25
2018-04-13T12:23:39.080Z,66.00
2018-04-13T12:24:43.420Z,69.75
2018-04-13T12:25:47.703Z,64.50
2018-04-13T12:26:52.384Z,69.25
2018-04-13T12:27:57.492Z,67.00
2018-04-13T12:29:01.722Z,62.75
2018-04-13T12:30:07.390Z,52.50
2018-04-13T12:31:11.997Z,71.00
2018-04-13T12:32:17.086Z,70.75
2018-04-13T12:33:21.403Z,67.50
2018-04-13T12:34:25.654Z,71.00
2018-04-13T12:35:29.840Z,69.25
2018-04-13T12:36:34.078Z,72.50
2018-04-13T12:37:38.333Z,66.50
2018-04-13T12:38:42.696Z,64.00
2018-04-13T12:39:46.911Z,69.50
2018-04-13T12:40:52.778Z,63.25
2018-04-13T12:41:57.344Z,65.00
2018-04-13T12:43:01.499Z,67.25
2018-04-13T12:44:05.736Z,62.50
2018-04-13T12:45:10.138Z,68.50
2018-04-13T12:46:14.757Z,71.00
2018-04-13T12:47:19.051Z,66.75
2018-04-13T12:48:23.237Z,65.25
2018-04-13T12:49:27.472Z,66.75
2018-04-13T12:50:31.736Z,67.50
2018-04-13T12:51:35.979Z,66.50
2018-04-13T12:52:40.187Z,65.00
2018-04-13T12:53:44.519Z,67.75
2018-04-13T12:54:49.132Z,70.50
2018-04-13T12:55:53.270Z,67.25
2018-04-13T12:56:57.635Z,66.25
2018-04-13T12:58:01.798Z,71.00
2018-04-13T12:59:06.244Z,67.50
2018-04-13T13:00:13.368Z,64.00
2018-04-13T13:01:17.529Z,66.50
2018-04-13T13:02:21.667Z,73.50
2018-04-13T13:03:25.793Z,70.50
2018-04-13T13:04:30.093Z,66.75
2018-04-13T13:05:34.246Z,66.25
2018-04-13T13:06:38.467Z,66.25
2018-04-13T13:07:42.661Z,65.00
2018-04-13T13:08:46.853Z,69.50
2018-04-13T13:09:51.250Z,64.25
2018-04-13T13:10:55.796Z,65.25
2018-04-13T13:12:00.517Z,71.00
2018-04-13T13:13:05.194Z,64.25
2018-04-13T13:14:09.331Z,59.50
2018-04-13T13:15:15.619Z,67.50
2018-04-13T13:16:19.746Z,65.50
2018-04-13T13:17:23.897Z,70.00
2018-04-13T13:18:28.166Z,66.00
2018-04-13T13:19:32.640Z,65.25
2018-04-13T13:20:36.877Z,61.00
2018-04-13T13:21:41.212Z,60.00
2018-04-13T13:22:45.743Z,69.25
2018-04-13T13:23:50.011Z,71.25
2018-04-13T13:24:54.237Z,71.50
2018-04-13T13:25:58.364Z,65.50
2018-04-13T13:27:04.000Z,64.50
2018-04-13T13:28:08.196Z,68.00
2018-04-13T13:29:13.617Z,63.25
2018-04-13T13:30:18.179Z,69.00
2018-04-13T13:31:22.307Z,61.00
2018-04-13T13:32:26.461Z,70.50
2018-04-13T13:33:30.747Z,67.25
2018-04-13T13:34:35.357Z,71.25
2018-04-13T13:35:39.529Z,65.00
2018-04-13T13:36:43.641Z,72.00
2018-04-13T13:37:47.966Z,76.00
2018-04-13T13:38:52.328Z,72.00
2018-04-13T13:39:56.463Z,72.25
2018-04-13T13:41:01.689Z,73.50
2018-04-13T13:42:06.679Z,75.00
2018-04-13T13:43:11.530Z,71.75
2018-04-13T13:44:15.703Z,68.50
2018-04-13T13:45:20.121Z,69.75
2018-04-13T13:46:24.395Z,71.00
2018-04-13T13:47:29.382Z,70.75
2018-04-13T13:48:33.585Z,65.00
2018-04-13T13:49:37.794Z,69.50
2018-04-13T13:50:42.025Z,69.75
2018-04-13T13:51:46.167Z,66.50
2018-04-13T13:52:50.327Z,67.00